createdAt,value
2022-08-07T00:02:58.171Z,102565.03
2022-08-07T00:05:55.373Z,102565.16
2022-08-07T00:08:52.597Z,102569.50
2022-08-07T00:11:55.459Z,102552.44
2022-08-07T00:14:53.934Z,102553.50
2022-08-07T00:17:51.621Z,102561.28
2022-08-07T00:20:49.802Z,102558.78
2022-08-07T00:23:46.777Z,102552.88
2022-08-07T00:26:58.896Z,102553.06
2022-08-07T00:30:05.674Z,102554.63
2022-08-07T00:33:18.457Z,102554.69
2022-08-07T00:36:17.446Z,102565.06
2022-08-07T00:39:16.511Z,102559.31
2022-08-07T00:42:14.341Z,102554.75
2022-08-07T00:45:16.375Z,102563.75
2022-08-07T00:48:13.470Z,102553.94
2022-08-07T00:51:10.353Z,102535.09
2022-08-07T00:54:07.749Z,102532.44
2022-08-07T00:57:10.553Z,102539.84
2022-08-07T01:00:10.090Z,102555.97
2022-08-07T01:03:08.425Z,102536.16
2022-08-07T01:06:09.803Z,102535.59
2022-08-07T01:09:09.231Z,102521.69
2022-08-07T01:12:29.648Z,102523.94
2022-08-07T01:15:35.879Z,102532.56
2022-08-07T01:18:42.611Z,102533.91
2022-08-07T01:21:39.670Z,102528.22
2022-08-07T01:24:37.629Z,102528.94
2022-08-07T01:27:35.599Z,102526.75
2022-08-07T01:30:33.575Z,102537.59
2022-08-07T01:33:54.979Z,102532.41
2022-08-07T01:36:52.440Z,102531.69
2022-08-07T01:40:00.867Z,102525.53
2022-08-07T01:43:00.374Z,102517.91
2022-08-07T01:46:02.378Z,102518.41
2022-08-07T01:49:00.278Z,102530.09
2022-08-07T01:52:03.211Z,102534.38
2022-08-07T01:55:02.037Z,102515.94
2022-08-07T01:58:28.970Z,102516.34
2022-08-07T02:02:01.980Z,102519.34
2022-08-07T02:04:57.489Z,102515.25
2022-08-07T02:07:58.844Z,102515.88
2022-08-07T02:11:03.280Z,102510.06
2022-08-07T02:14:02.823Z,102513.75
2022-08-07T02:17:03.152Z,102513.47
2022-08-07T02:20:06.993Z,102516.34
2022-08-07T02:23:07.736Z,102513.91
2022-08-07T02:26:30.698Z,102511.91
2022-08-07T02:29:22.583Z,102499.09
2022-08-07T02:32:23.456Z,102494.13
2022-08-07T02:36:28.752Z,102492.47
2022-08-07T02:38:50.602Z,102488.63
2022-08-07T02:41:55.142Z,102485.81
2022-08-07T02:44:54.988Z,102492.63
2022-08-07T02:47:56.699Z,102489.31
2022-08-07T02:51:01.223Z,102492.19
2022-08-07T02:54:01.035Z,102483.31
2022-08-07T02:57:00.515Z,102483.47
2022-08-07T03:00:01.272Z,102473.44
2022-08-07T03:03:06.030Z,102482.13
2022-08-07T03:06:05.895Z,102475.09
2022-08-07T03:09:14.413Z,102472.28
2022-08-07T03:12:21.706Z,102480.47
2022-08-07T03:15:30.251Z,102479.13
2022-08-07T03:18:39.690Z,102471.78
2022-08-07T03:21:41.760Z,102477.47
2022-08-07T03:24:47.751Z,102479.63
2022-08-07T03:28:08.770Z,102487.47
2022-08-07T03:31:24.569Z,102476.13
2022-08-07T03:34:27.156Z,102476.94
2022-08-07T03:37:32.631Z,102473.25
2022-08-07T03:40:36.169Z,102480.97
2022-08-07T03:43:38.676Z,102474.13
2022-08-07T03:47:14.105Z,102487.63
2022-08-07T03:50:00.877Z,102476.47
2022-08-07T03:53:03.533Z,102475.78
2022-08-07T03:56:04.076Z,102479.47
2022-08-07T03:59:10.014Z,102482.81
2022-08-07T04:02:12.868Z,102479.81
2022-08-07T04:05:12.015Z,102488.31
2022-08-07T04:08:11.881Z,102487.16
2022-08-07T04:12:24.481Z,102491.00
2022-08-07T04:14:38.187Z,102494.00
2022-08-07T04:18:56.894Z,102492.13
2022-08-07T04:20:55.142Z,102498.81
2022-08-07T04:24:05.723Z,102489.16
2022-08-07T04:27:05.778Z,102485.66
2022-08-07T04:30:21.709Z,102495.50
2022-08-07T04:33:35.338Z,102488.00
2022-08-07T04:36:34.441Z,102489.66
2022-08-07T04:39:35.948Z,102489.00
2022-08-07T04:42:34.788Z,102483.16
2022-08-07T04:46:01.641Z,102493.16
2022-08-07T04:49:25.509Z,102496.50
2022-08-07T04:52:51.426Z,102494.00
2022-08-07T04:58:11.332Z,102499.50
2022-08-07T05:00:12.344Z,102503.00
2022-08-07T05:02:53.189Z,102506.00
2022-08-07T05:05:58.227Z,102491.13
2022-08-07T05:09:09.712Z,102496.66
2022-08-07T05:12:15.514Z,102491.97
2022-08-07T05:15:27.316Z,102498.06
2022-08-07T05:18:32.125Z,102501.84
2022-08-07T05:22:00.677Z,102504.84
2022-08-07T05:24:48.749Z,102514.63
2022-08-07T05:28:03.239Z,102511.69
2022-08-07T05:31:05.075Z,102512.03
2022-08-07T05:34:05.704Z,102507.94
2022-08-07T05:37:08.610Z,102504.31
2022-08-07T05:40:18.782Z,102501.69
2022-08-07T05:43:18.569Z,102509.41
2022-08-07T05:46:17.217Z,102501.50
2022-08-07T05:49:15.645Z,102506.59
2022-08-07T05:52:20.158Z,102518.56
2022-08-07T05:55:18.699Z,102509.63
2022-08-07T05:58:16.714Z,102523.28
2022-08-07T06:01:15.144Z,102511.41
2022-08-07T06:04:15.282Z,102518.31
2022-08-07T06:07:22.778Z,102516.44
2022-08-07T06:10:21.765Z,102525.16
2022-08-07T06:14:11.988Z,102518.84
2022-08-07T06:16:38.849Z,102522.69
2022-08-07T06:19:57.655Z,102522.94
2022-08-07T06:23:25.216Z,102528.28
2022-08-07T06:26:14.808Z,102523.78
2022-08-07T06:29:12.592Z,102532.31
2022-08-07T06:32:10.030Z,102526.00
2022-08-07T06:35:17.719Z,102525.03
2022-08-07T06:38:20.483Z,102525.75
2022-08-07T06:42:00.504Z,102524.78
2022-08-07T06:45:21.257Z,102524.56
2022-08-07T06:48:25.431Z,102520.44
2022-08-07T06:51:33.579Z,102521.00
2022-08-07T06:55:33.829Z,102511.63
2022-08-07T06:57:59.287Z,102523.28
2022-08-07T07:00:59.686Z,102513.81
2022-08-07T07:04:07.019Z,102516.28
2022-08-07T07:07:19.366Z,102521.44
2022-08-07T07:10:35.384Z,102516.03
2022-08-07T07:13:58.440Z,102505.66
2022-08-07T07:16:59.318Z,102515.72
2022-08-07T07:19:59.169Z,102508.38
2022-08-07T07:24:05.991Z,102527.69
2022-08-07T07:26:35.622Z,102516.63
2022-08-07T07:29:55.815Z,102514.63
2022-08-07T07:32:54.754Z,102511.53
2022-08-07T07:36:04.430Z,102508.63
2022-08-07T07:39:03.192Z,102506.22
2022-08-07T07:42:13.037Z,102503.56
2022-08-07T07:45:11.195Z,102500.00
2022-08-07T07:48:35.136Z,102501.22
2022-08-07T07:51:32.141Z,102492.72
2022-08-07T07:54:50.855Z,102482.84
2022-08-07T07:57:53.770Z,102500.00
2022-08-07T08:00:55.035Z,102497.91
2022-08-07T08:04:05.820Z,102492.16
2022-08-07T08:07:07.743Z,102491.38
2022-08-07T08:10:05.873Z,102478.16
2022-08-07T08:13:03.006Z,102479.97
2022-08-07T08:16:01.932Z,102485.56
2022-08-07T08:19:00.442Z,102486.91
2022-08-07T08:22:32.652Z,102487.06
2022-08-07T08:25:50.930Z,102482.41
2022-08-07T08:28:48.027Z,102475.50
2022-08-07T08:31:59.296Z,102473.50
2022-08-07T08:35:12.619Z,102477.88
2022-08-07T08:38:13.998Z,102469.53
2022-08-07T08:41:31.445Z,102459.75
2022-08-07T08:45:06.051Z,102464.41
2022-08-07T08:48:32.445Z,102465.97
2022-08-07T08:52:14.208Z,102461.22
2022-08-07T08:55:55.143Z,102465.84
2022-08-07T08:59:48.590Z,102461.41
2022-08-07T09:02:56.029Z,102471.63
2022-08-07T09:05:58.978Z,102472.34
2022-08-07T09:09:09.704Z,102463.34
2022-08-07T09:12:31.572Z,102477.41
2022-08-07T09:16:24.186Z,102471.47
2022-08-07T09:19:51.753Z,102460.41
2022-08-07T09:24:30.994Z,102458.00
2022-08-07T09:25:59.029Z,102456.00
2022-08-07T09:30:01.427Z,102455.34
2022-08-07T09:32:29.141Z,102457.56
2022-08-07T09:36:03.839Z,102447.50
2022-08-07T09:39:54.303Z,102443.00
2022-08-07T09:42:58.672Z,102437.84
2022-08-07T09:47:55.261Z,102438.50
2022-08-07T09:50:19.189Z,102423.13
2022-08-07T09:53:18.417Z,102425.81
2022-08-07T09:56:37.436Z,102417.63
2022-08-07T09:59:44.740Z,102421.38
2022-08-07T10:03:07.872Z,102422.66
2022-08-07T10:06:24.548Z,102421.34
2022-08-07T10:10:00.683Z,102419.97
2022-08-07T10:13:55.236Z,102418.81
2022-08-07T10:17:14.065Z,102411.09
2022-08-07T10:20:30.730Z,102398.50
2022-08-07T10:24:08.580Z,102395.78
2022-08-07T10:27:46.987Z,102387.78
2022-08-07T10:31:11.155Z,102391.06
2022-08-07T10:34:36.237Z,102377.72
2022-08-07T10:38:09.499Z,102381.44
2022-08-07T10:41:46.588Z,102379.59
2022-08-07T10:44:59.788Z,102373.63
2022-08-07T10:48:24.917Z,102375.47
2022-08-07T10:51:57.770Z,102371.09
2022-08-07T10:55:27.142Z,102360.38
2022-08-07T10:58:59.616Z,102355.78
2022-08-07T11:02:05.006Z,102353.78
2022-08-07T11:05:35.677Z,102358.72
2022-08-07T11:08:52.927Z,102361.66
2022-08-07T11:12:01.441Z,102341.88
2022-08-07T11:15:03.272Z,102344.97
2022-08-07T11:18:25.377Z,102342.34
2022-08-07T11:21:43.102Z,102353.59
2022-08-07T11:24:45.987Z,102344.66
2022-08-07T11:28:03.222Z,102345.72
2022-08-07T11:31:22.082Z,102346.09
2022-08-07T11:34:24.874Z,102354.22
2022-08-07T11:38:08.889Z,102350.38
2022-08-07T11:41:08.280Z,102344.78
2022-08-07T11:44:38.991Z,102335.63
2022-08-07T11:47:59.167Z,102333.66
2022-08-07T11:51:41.172Z,102323.69
2022-08-07T11:55:02.773Z,102329.38
2022-08-07T11:58:36.172Z,102334.91
2022-08-07T12:01:59.679Z,102332.00
2022-08-07T12:05:15.660Z,102339.69
2022-08-07T12:08:44.334Z,102326.19
2022-08-07T12:12:10.205Z,102325.03
2022-08-07T12:16:05.079Z,102324.31
2022-08-07T12:18:56.321Z,102318.44
2022-08-07T12:22:37.790Z,102313.91
2022-08-07T12:26:05.447Z,102318.38
2022-08-07T12:29:37.627Z,102317.56
2022-08-07T12:32:45.264Z,102306.94
2022-08-07T12:35:57.811Z,102307.41
2022-08-07T12:38:57.268Z,102310.75
2022-08-07T12:41:54.931Z,102300.06
2022-08-07T12:44:52.029Z,102291.41
2022-08-07T12:47:57.820Z,102286.06
2022-08-07T12:51:17.598Z,102288.91
2022-08-07T12:54:37.820Z,102286.44
2022-08-07T12:57:39.088Z,102284.81
2022-08-07T13:01:00.367Z,102284.41
2022-08-07T13:04:32.615Z,102275.31
2022-08-07T13:08:22.648Z,102275.31
2022-08-07T13:12:02.443Z,102282.34
2022-08-07T13:15:37.216Z,102272.03
2022-08-07T13:18:38.804Z,102283.16
2022-08-07T13:21:57.288Z,102285.63
2022-08-07T13:25:09.494Z,102293.47
2022-08-07T13:28:18.282Z,102272.06
2022-08-07T13:32:00.187Z,102261.69
2022-08-07T13:36:00.246Z,102269.59
2022-08-07T13:39:13.171Z,102271.63
2022-08-07T13:42:24.809Z,102267.94
2022-08-07T13:46:11.712Z,102258.03
2022-08-07T13:48:51.892Z,102265.88
2022-08-07T13:52:04.851Z,102260.50
2022-08-07T13:55:26.268Z,102250.16
2022-08-07T13:58:56.633Z,102255.94
2022-08-07T14:02:03.713Z,102245.22
2022-08-07T14:05:12.093Z,102254.69
2022-08-07T14:08:09.333Z,102248.84
2022-08-07T14:11:17.513Z,102255.47
2022-08-07T14:14:16.612Z,102258.00
2022-08-07T14:18:15.506Z,102251.84
2022-08-07T14:20:41.051Z,102242.34
2022-08-07T14:24:00.304Z,102266.69
2022-08-07T14:27:00.169Z,102251.00
2022-08-07T14:30:07.504Z,102252.25
2022-08-07T14:33:08.183Z,102237.41
2022-08-07T14:36:08.786Z,102250.16
2022-08-07T14:39:06.541Z,102248.91
2022-08-07T14:42:18.610Z,102243.94
2022-08-07T14:45:21.170Z,102241.91
2022-08-07T14:48:37.110Z,102241.94
2022-08-07T14:52:02.833Z,102235.75
2022-08-07T14:54:54.238Z,102244.00
2022-08-07T14:57:54.886Z,102250.53
2022-08-07T15:00:55.933Z,102255.78
2022-08-07T15:04:05.344Z,102241.75
2022-08-07T15:07:03.413Z,102229.75
2022-08-07T15:10:26.267Z,102226.97
2022-08-07T15:13:25.526Z,102224.13
2022-08-07T15:16:55.042Z,102235.97
2022-08-07T15:20:33.723Z,102221.13
2022-08-07T15:25:04.026Z,102223.66
2022-08-07T15:26:44.981Z,102224.03
2022-08-07T15:33:03.959Z,102217.47
2022-08-07T15:36:05.257Z,102221.56
2022-08-07T15:39:04.843Z,102213.72
2022-08-07T15:42:43.486Z,102218.63
2022-08-07T15:49:03.805Z,102214.66
2022-08-07T15:52:06.899Z,102210.88
2022-08-07T15:55:11.423Z,102201.78
2022-08-07T15:58:19.291Z,102201.06
2022-08-07T16:01:38.984Z,102190.66
2022-08-07T16:04:37.364Z,102198.84
2022-08-07T16:08:30.620Z,102195.53
2022-08-07T16:11:04.748Z,102181.53
2022-08-07T16:14:37.761Z,102186.59
2022-08-07T16:18:02.732Z,102179.25
2022-08-07T16:22:01.488Z,102188.72
2022-08-07T16:24:57.026Z,102189.09
2022-08-07T16:28:11.465Z,102192.69
2022-08-07T16:31:51.312Z,102194.25
2022-08-07T16:35:56.337Z,102193.72
2022-08-07T16:39:01.004Z,102189.94
2022-08-07T16:42:15.627Z,102189.94
2022-08-07T16:46:33.514Z,102198.66
2022-08-07T16:50:28.885Z,102191.56
2022-08-07T16:53:14.801Z,102195.75
2022-08-07T16:56:44.848Z,102185.25
2022-08-07T17:00:15.086Z,102193.66
2022-08-07T17:03:17.250Z,102195.44
2022-08-07T17:06:31.398Z,102201.84
2022-08-07T17:10:06.764Z,102199.75
2022-08-07T17:13:20.337Z,102202.81
2022-08-07T17:16:29.323Z,102189.97
2022-08-07T17:20:02.310Z,102201.03
2022-08-07T17:23:01.605Z,102203.88
2022-08-07T17:26:23.928Z,102193.06
2022-08-07T17:30:15.641Z,102203.19
2022-08-07T17:33:00.736Z,102190.16
2022-08-07T17:36:20.280Z,102192.59
2022-08-07T17:39:22.227Z,102193.09
2022-08-07T17:42:59.342Z,102189.50
2022-08-07T17:46:09.247Z,102192.00
2022-08-07T17:49:44.816Z,102197.28
2022-08-07T17:52:59.074Z,102189.59
2022-08-07T17:56:06.429Z,102188.16
2022-08-07T17:59:35.781Z,102184.91
2022-08-07T18:02:40.100Z,102187.88
2022-08-07T18:06:16.814Z,102201.06
2022-08-07T18:10:04.779Z,102196.59
2022-08-07T18:13:01.474Z,102199.91
2022-08-07T18:16:10.127Z,102203.22
2022-08-07T18:21:11.945Z,102203.06
2022-08-07T18:23:02.355Z,102192.13
2022-08-07T18:26:05.417Z,102198.56
2022-08-07T18:30:08.389Z,102206.31
2022-08-07T18:32:54.044Z,102213.69
2022-08-07T18:36:14.073Z,102215.75
2022-08-07T18:40:06.916Z,102219.03
2022-08-07T18:42:57.435Z,102226.06
2022-08-07T18:46:25.006Z,102230.19
2022-08-07T18:50:32.401Z,102235.97
2022-08-07T18:52:53.777Z,102239.47
2022-08-07T18:56:30.809Z,102225.22
2022-08-07T18:59:58.520Z,102230.03
2022-08-07T19:03:12.303Z,102234.41
2022-08-07T19:06:33.722Z,102244.28
2022-08-07T19:09:57.510Z,102244.56
2022-08-07T19:13:11.705Z,102242.31
2022-08-07T19:17:06.088Z,102251.31
2022-08-07T19:20:03.866Z,102260.31
2022-08-07T19:23:18.454Z,102254.78
2022-08-07T19:26:24.369Z,102261.13
2022-08-07T19:31:01.229Z,102271.91
2022-08-07T19:32:46.181Z,102268.66
2022-08-07T19:35:44.972Z,102279.22
2022-08-07T19:38:53.007Z,102294.09
2022-08-07T19:42:05.852Z,102296.72
2022-08-07T19:45:08.698Z,102300.53
2022-08-07T19:48:06.623Z,102298.91
2022-08-07T19:51:19.911Z,102301.31
2022-08-07T19:54:29.817Z,102305.16
2022-08-07T19:58:02.107Z,102306.75
2022-08-07T20:00:56.371Z,102302.50
2022-08-07T20:03:53.821Z,102307.66
2022-08-07T20:06:52.775Z,102307.50
2022-08-07T20:10:37.865Z,102307.91
2022-08-07T20:13:23.441Z,102316.97
2022-08-07T20:16:35.890Z,102303.09
2022-08-07T20:19:49.665Z,102308.16
2022-08-07T20:22:51.055Z,102311.97
2022-08-07T20:25:50.898Z,102324.25
2022-08-07T20:28:51.342Z,102318.28
2022-08-07T20:31:48.632Z,102331.69
2022-08-07T20:34:51.147Z,102321.63
2022-08-07T20:37:58.271Z,102325.88
2022-08-07T20:41:03.961Z,102320.38
2022-08-07T20:44:02.591Z,102311.84
2022-08-07T20:47:05.923Z,102309.53
2022-08-07T20:50:07.262Z,102316.13
2022-08-07T20:53:05.623Z,102304.72
2022-08-07T20:56:03.175Z,102309.06
2022-08-07T20:59:02.917Z,102309.41
2022-08-07T21:02:04.406Z,102311.22
2022-08-07T21:05:18.406Z,102309.59
2022-08-07T21:08:41.164Z,102319.78
2022-08-07T21:11:46.321Z,102320.44
2022-08-07T21:14:53.606Z,102329.41
2022-08-07T21:18:09.629Z,102322.56
2022-08-07T21:21:08.777Z,102318.19
2022-08-07T21:24:10.204Z,102323.19
2022-08-07T21:27:26.725Z,102325.81
2022-08-07T21:31:10.455Z,102320.69
2022-08-07T21:34:13.302Z,102324.81
2022-08-07T21:37:22.653Z,102328.13
2022-08-07T21:40:29.051Z,102329.69
2022-08-07T21:43:55.498Z,102332.56
2022-08-07T21:46:57.865Z,102332.94
2022-08-07T21:50:01.813Z,102338.81
2022-08-07T21:53:13.053Z,102331.91
2022-08-07T21:56:36.242Z,102329.81
2022-08-07T22:00:05.225Z,102340.91
2022-08-07T22:03:30.929Z,102337.38
2022-08-07T22:06:31.511Z,102334.22
2022-08-07T22:09:37.971Z,102339.56
2022-08-07T22:12:52.065Z,102344.69
2022-08-07T22:16:42.993Z,102349.22
2022-08-07T22:19:29.898Z,102351.94
2022-08-07T22:22:36.734Z,102359.03
2022-08-07T22:25:53.803Z,102343.91
2022-08-07T22:29:08.985Z,102329.25
2022-08-07T22:33:01.450Z,102325.66
2022-08-07T22:36:00.978Z,102333.78
2022-08-07T22:39:29.800Z,102337.88
2022-08-07T22:42:33.809Z,102342.25
2022-08-07T22:46:43.056Z,102346.63
2022-08-07T22:49:23.323Z,102348.22
2022-08-07T22:52:37.702Z,102338.69
2022-08-07T22:55:48.479Z,102339.13
2022-08-07T22:59:02.388Z,102353.34
2022-08-07T23:02:27.505Z,102348.88
2022-08-07T23:06:07.182Z,102342.19
2022-08-07T23:10:05.005Z,102355.72
2022-08-07T23:12:48.756Z,102365.22
2022-08-07T23:16:43.308Z,102362.63
2022-08-07T23:20:40.548Z,102364.94
2022-08-07T23:24:11.831Z,102366.78
2022-08-07T23:27:35.468Z,102370.28
2022-08-07T23:31:18.776Z,102370.94
2022-08-07T23:34:39.962Z,102363.69
2022-08-07T23:38:19.271Z,102360.38
2022-08-07T23:42:04.418Z,102359.13
2022-08-07T23:45:15.043Z,102348.69
2022-08-07T23:49:02.276Z,102357.72
2022-08-07T23:53:01.141Z,102352.00
2022-08-07T23:55:52.025Z,102356.53
